sensor_id;sensor_type;location;lat;lon;timestamp;P1;durP1;ratioP1;P2;durP2;ratioP2
22480;SDS011;11407;56.964;-2.212;2022-11-20T00:01:16;9.20;;;2.17;;
22480;SDS011;11407;56.964;-2.212;2022-11-20T00:03:43;10.07;;;2.43;;
22480;SDS011;11407;56.964;-2.212;2022-11-20T00:06:13;11.93;;;2.67;;
22480;SDS011;11407;56.964;-2.212;2022-11-20T00:08:40;9.10;;;2.77;;
22480;SDS011;11407;56.964;-2.212;2022-11-20T00:11:07;12.10;;;2.10;;
22480;SDS011;11407;56.964;-2.212;2022-11-20T00:13:33;11.80;;;2.20;;
22480;SDS011;11407;56.964;-2.212;2022-11-20T00:16:00;8.60;;;2.23;;
22480;SDS011;11407;56.964;-2.212;2022-11-20T00:18:27;7.57;;;1.80;;
22480;SDS011;11407;56.964;-2.212;2022-11-20T00:20:53;7.30;;;1.97;;
22480;SDS011;11407;56.964;-2.212;2022-11-20T00:23:19;6.73;;;2.20;;
22480;SDS011;11407;56.964;-2.212;2022-11-20T00:25:44;5.53;;;2.00;;
22480;SDS011;11407;56.964;-2.212;2022-11-20T00:28:10;6.00;;;2.17;;
22480;SDS011;11407;56.964;-2.212;2022-11-20T00:30:35;12.83;;;2.63;;
22480;SDS011;11407;56.964;-2.212;2022-11-20T00:33:01;8.93;;;2.23;;
22480;SDS011;11407;56.964;-2.212;2022-11-20T00:35:26;6.90;;;2.33;;
22480;SDS011;11407;56.964;-2.212;2022-11-20T00:37:51;7.97;;;1.93;;
22480;SDS011;11407;56.964;-2.212;2022-11-20T00:40:17;8.20;;;1.77;;
22480;SDS011;11407;56.964;-2.212;2022-11-20T00:42:42;8.30;;;2.07;;
22480;SDS011;11407;56.964;-2.212;2022-11-20T00:45:08;11.87;;;2.10;;
22480;SDS011;11407;56.964;-2.212;2022-11-20T00:47:33;6.20;;;1.90;;
22480;SDS011;11407;56.964;-2.212;2022-11-20T00:49:59;8.43;;;2.37;;
22480;SDS011;11407;56.964;-2.212;2022-11-20T00:52:24;13.20;;;2.40;;
22480;SDS011;11407;56.964;-2.212;2022-11-20T00:54:49;13.13;;;2.43;;
22480;SDS011;11407;56.964;-2.212;2022-11-20T00:57:15;6.60;;;2.00;;
22480;SDS011;11407;56.964;-2.212;2022-11-20T00:59:40;9.30;;;2.10;;
22480;SDS011;11407;56.964;-2.212;2022-11-20T01:02:05;10.80;;;2.20;;
22480;SDS011;11407;56.964;-2.212;2022-11-20T01:04:31;10.77;;;1.97;;
22480;SDS011;11407;56.964;-2.212;2022-11-20T01:06:56;13.23;;;2.20;;
22480;SDS011;11407;56.964;-2.212;2022-11-20T01:09:22;9.03;;;2.00;;
22480;SDS011;11407;56.964;-2.212;2022-11-20T01:11:47;12.73;;;2.87;;
22480;SDS011;11407;56.964;-2.212;2022-11-20T01:14:14;15.27;;;2.40;;
22480;SDS011;11407;56.964;-2.212;2022-11-20T01:16:43;9.07;;;2.23;;
22480;SDS011;11407;56.964;-2.212;2022-11-20T01:19:14;6.47;;;2.50;;
22480;SDS011;11407;56.964;-2.212;2022-11-20T01:21:43;11.73;;;2.37;;
22480;SDS011;11407;56.964;-2.212;2022-11-20T01:24:13;7.20;;;1.90;;
22480;SDS011;11407;56.964;-2.212;2022-11-20T01:26:40;10.13;;;2.20;;
22480;SDS011;11407;56.964;-2.212;2022-11-20T01:29:08;9.10;;;2.53;;
22480;SDS011;11407;56.964;-2.212;2022-11-20T01:31:38;11.80;;;2.07;;
22480;SDS011;11407;56.964;-2.212;2022-11-20T01:34:04;8.70;;;2.23;;
22480;SDS011;11407;56.964;-2.212;2022-11-20T01:36:41;12.90;;;2.27;;
22480;SDS011;11407;56.964;-2.212;2022-11-20T01:39:10;5.50;;;1.83;;
22480;SDS011;11407;56.964;-2.212;2022-11-20T01:41:37;6.93;;;2.07;;
22480;SDS011;11407;56.964;-2.212;2022-11-20T01:44:22;11.67;;;2.37;;
22480;SDS011;11407;56.964;-2.212;2022-11-20T01:47:10;7.20;;;2.17;;
22480;SDS011;11407;56.964;-2.212;2022-11-20T01:49:42;9.37;;;2.53;;
22480;SDS011;11407;56.964;-2.212;2022-11-20T01:52:15;7.57;;;2.27;;
22480;SDS011;11407;56.964;-2.212;2022-11-20T01:54:46;14.20;;;2.93;;
22480;SDS011;11407;56.964;-2.212;2022-11-20T01:57:16;9.40;;;2.27;;
22480;SDS011;11407;56.964;-2.212;2022-11-20T01:59:44;11.43;;;2.43;;
22480;SDS011;11407;56.964;-2.212;2022-11-20T02:02:17;8.37;;;2.63;;
22480;SDS011;11407;56.964;-2.212;2022-11-20T02:04:42;13.73;;;2.47;;
22480;SDS011;11407;56.964;-2.212;2022-11-20T02:07:08;11.67;;;2.67;;
22480;SDS011;11407;56.964;-2.212;2022-11-20T02:09:34;6.83;;;2.13;;
22480;SDS011;11407;56.964;-2.212;2022-11-20T02:11:59;9.77;;;2.40;;
22480;SDS011;11407;56.964;-2.212;2022-11-20T02:14:26;15.33;;;3.57;;
22480;SDS011;11407;56.964;-2.212;2022-11-20T02:16:52;8.30;;;2.40;;
22480;SDS011;11407;56.964;-2.212;2022-11-20T02:19:23;13.53;;;2.83;;
22480;SDS011;11407;56.964;-2.212;2022-11-20T02:24:27;9.60;;;2.77;;
22480;SDS011;11407;56.964;-2.212;2022-11-20T02:26:54;8.67;;;2.40;;
22480;SDS011;11407;56.964;-2.212;2022-11-20T02:29:28;11.27;;;2.27;;
22480;SDS011;11407;56.964;-2.212;2022-11-20T02:31:57;14.83;;;3.10;;
22480;SDS011;11407;56.964;-2.212;2022-11-20T02:34:26;9.13;;;2.83;;
22480;SDS011;11407;56.964;-2.212;2022-11-20T02:36:51;7.30;;;2.37;;
22480;SDS011;11407;56.964;-2.212;2022-11-20T02:39:17;8.27;;;2.20;;
22480;SDS011;11407;56.964;-2.212;2022-11-20T02:41:45;8.40;;;2.87;;
22480;SDS011;11407;56.964;-2.212;2022-11-20T02:44:11;8.17;;;2.50;;
22480;SDS011;11407;56.964;-2.212;2022-11-20T02:46:37;8.67;;;2.67;;
22480;SDS011;11407;56.964;-2.212;2022-11-20T02:49:02;8.20;;;2.30;;
22480;SDS011;11407;56.964;-2.212;2022-11-20T02:51:29;8.07;;;2.60;;
22480;SDS011;11407;56.964;-2.212;2022-11-20T02:53:55;9.60;;;2.60;;
22480;SDS011;11407;56.964;-2.212;2022-11-20T02:56:20;10.17;;;2.97;;
22480;SDS011;11407;56.964;-2.212;2022-11-20T02:58:46;10.07;;;2.27;;
22480;SDS011;11407;56.964;-2.212;2022-11-20T03:01:12;10.33;;;2.70;;
22480;SDS011;11407;56.964;-2.212;2022-11-20T03:03:38;10.53;;;2.33;;
22480;SDS011;11407;56.964;-2.212;2022-11-20T03:06:03;9.80;;;2.33;;
22480;SDS011;11407;56.964;-2.212;2022-11-20T03:08:29;7.47;;;2.10;;
22480;SDS011;11407;56.964;-2.212;2022-11-20T03:10:54;4.27;;;2.23;;
22480;SDS011;11407;56.964;-2.212;2022-11-20T03:13:19;7.97;;;1.80;;
22480;SDS011;11407;56.964;-2.212;2022-11-20T03:15:45;7.70;;;1.70;;
22480;SDS011;11407;56.964;-2.212;2022-11-20T03:18:10;8.73;;;2.00;;
22480;SDS011;11407;56.964;-2.212;2022-11-20T03:20:36;8.57;;;2.03;;
22480;SDS011;11407;56.964;-2.212;2022-11-20T03:23:01;4.03;;;1.57;;
22480;SDS011;11407;56.964;-2.212;2022-11-20T03:25:26;4.60;;;1.20;;
22480;SDS011;11407;56.964;-2.212;2022-11-20T03:27:52;5.70;;;1.47;;
22480;SDS011;11407;56.964;-2.212;2022-11-20T03:30:18;6.43;;;1.70;;
22480;SDS011;11407;56.964;-2.212;2022-11-20T03:32:44;5.83;;;2.07;;
22480;SDS011;11407;56.964;-2.212;2022-11-20T03:35:09;9.03;;;2.10;;
22480;SDS011;11407;56.964;-2.212;2022-11-20T03:37:35;2.73;;;1.20;;
22480;SDS011;11407;56.964;-2.212;2022-11-20T03:40:00;9.17;;;2.03;;
22480;SDS011;11407;56.964;-2.212;2022-11-20T03:42:26;10.40;;;1.90;;
22480;SDS011;11407;56.964;-2.212;2022-11-20T03:45:10;5.67;;;2.37;;
22480;SDS011;11407;56.964;-2.212;2022-11-20T03:47:35;6.77;;;1.40;;
22480;SDS011;11407;56.964;-2.212;2022-11-20T03:50:01;7.47;;;1.97;;
22480;SDS011;11407;56.964;-2.212;2022-11-20T03:52:26;5.30;;;1.60;;
22480;SDS011;11407;56.964;-2.212;2022-11-20T03:54:51;6.07;;;1.50;;
22480;SDS011;11407;56.964;-2.212;2022-11-20T03:57:17;4.03;;;1.50;;
22480;SDS011;11407;56.964;-2.212;2022-11-20T03:59:42;7.50;;;1.80;;
22480;SDS011;11407;56.964;-2.212;2022-11-20T04:02:08;6.97;;;1.70;;
22480;SDS011;11407;56.964;-2.212;2022-11-20T04:04:33;4.53;;;1.63;;
22480;SDS011;11407;56.964;-2.212;2022-11-20T04:06:58;6.77;;;1.80;;
22480;SDS011;11407;56.964;-2.212;2022-11-20T04:09:24;4.80;;;1.40;;
22480;SDS011;11407;56.964;-2.212;2022-11-20T04:11:49;6.77;;;1.63;;
22480;SDS011;11407;56.964;-2.212;2022-11-20T04:14:15;4.30;;;1.50;;
22480;SDS011;11407;56.964;-2.212;2022-11-20T04:16:41;4.33;;;1.13;;
22480;SDS011;11407;56.964;-2.212;2022-11-20T04:19:09;3.23;;;1.30;;
22480;SDS011;11407;56.964;-2.212;2022-11-20T04:21:36;3.40;;;1.17;;
22480;SDS011;11407;56.964;-2.212;2022-11-20T04:24:02;3.30;;;1.50;;
22480;SDS011;11407;56.964;-2.212;2022-11-20T04:26:28;4.37;;;1.40;;
22480;SDS011;11407;56.964;-2.212;2022-11-20T04:28:54;3.97;;;1.70;;
22480;SDS011;11407;56.964;-2.212;2022-11-20T04:31:21;6.30;;;1.83;;
22480;SDS011;11407;56.964;-2.212;2022-11-20T04:33:52;4.70;;;1.80;;
22480;SDS011;11407;56.964;-2.212;2022-11-20T04:36:19;8.13;;;1.80;;
22480;SDS011;11407;56.964;-2.212;2022-11-20T04:38:46;8.67;;;1.70;;
22480;SDS011;11407;56.964;-2.212;2022-11-20T04:41:16;6.53;;;1.73;;
22480;SDS011;11407;56.964;-2.212;2022-11-20T04:43:47;6.30;;;1.67;;
22480;SDS011;11407;56.964;-2.212;2022-11-20T04:46:14;5.27;;;2.10;;
22480;SDS011;11407;56.964;-2.212;2022-11-20T04:48:41;5.37;;;1.80;;
22480;SDS011;11407;56.964;-2.212;2022-11-20T04:51:06;7.47;;;2.03;;
22480;SDS011;11407;56.964;-2.212;2022-11-20T04:53:32;5.43;;;1.43;;
22480;SDS011;11407;56.964;-2.212;2022-11-20T04:56:01;7.37;;;1.70;;
22480;SDS011;11407;56.964;-2.212;2022-11-20T04:58:27;4.33;;;1.40;;
22480;SDS011;11407;56.964;-2.212;2022-11-20T05:00:53;6.20;;;1.73;;
22480;SDS011;11407;56.964;-2.212;2022-11-20T05:03:18;5.13;;;1.37;;
22480;SDS011;11407;56.964;-2.212;2022-11-20T05:05:44;7.93;;;1.50;;
22480;SDS011;11407;56.964;-2.212;2022-11-20T05:08:09;5.90;;;2.00;;
22480;SDS011;11407;56.964;-2.212;2022-11-20T05:10:35;5.87;;;1.30;;
22480;SDS011;11407;56.964;-2.212;2022-11-20T05:13:00;7.10;;;1.40;;
22480;SDS011;11407;56.964;-2.212;2022-11-20T05:15:25;4.97;;;1.40;;
22480;SDS011;11407;56.964;-2.212;2022-11-20T05:17:51;3.10;;;1.40;;
22480;SDS011;11407;56.964;-2.212;2022-11-20T05:20:18;9.57;;;1.70;;
22480;SDS011;11407;56.964;-2.212;2022-11-20T05:22:44;6.27;;;1.60;;
22480;SDS011;11407;56.964;-2.212;2022-11-20T05:25:10;5.80;;;1.53;;
22480;SDS011;11407;56.964;-2.212;2022-11-20T05:27:36;4.83;;;1.60;;
22480;SDS011;11407;56.964;-2.212;2022-11-20T05:30:02;4.73;;;1.63;;
22480;SDS011;11407;56.964;-2.212;2022-11-20T05:32:28;5.43;;;1.43;;
22480;SDS011;11407;56.964;-2.212;2022-11-20T05:34:54;4.63;;;1.90;;
22480;SDS011;11407;56.964;-2.212;2022-11-20T05:37:19;4.70;;;1.67;;
22480;SDS011;11407;56.964;-2.212;2022-11-20T05:39:45;4.97;;;2.00;;
22480;SDS011;11407;56.964;-2.212;2022-11-20T05:42:10;5.97;;;1.70;;
22480;SDS011;11407;56.964;-2.212;2022-11-20T05:44:54;5.60;;;1.70;;
22480;SDS011;11407;56.964;-2.212;2022-11-20T05:47:19;5.67;;;1.77;;
22480;SDS011;11407;56.964;-2.212;2022-11-20T05:49:45;5.50;;;1.60;;
22480;SDS011;11407;56.964;-2.212;2022-11-20T05:52:10;5.90;;;1.70;;
22480;SDS011;11407;56.964;-2.212;2022-11-20T05:54:36;4.50;;;1.70;;
22480;SDS011;11407;56.964;-2.212;2022-11-20T05:57:01;6.23;;;1.90;;
22480;SDS011;11407;56.964;-2.212;2022-11-20T05:59:26;6.63;;;1.53;;
22480;SDS011;11407;56.964;-2.212;2022-11-20T06:01:52;7.03;;;1.67;;
22480;SDS011;11407;56.964;-2.212;2022-11-20T06:04:17;5.40;;;1.80;;
22480;SDS011;11407;56.964;-2.212;2022-11-20T06:06:42;9.10;;;1.60;;
22480;SDS011;11407;56.964;-2.212;2022-11-20T06:09:08;6.90;;;2.00;;
22480;SDS011;11407;56.964;-2.212;2022-11-20T06:11:33;6.83;;;2.03;;
22480;SDS011;11407;56.964;-2.212;2022-11-20T06:13:59;8.03;;;1.67;;
22480;SDS011;11407;56.964;-2.212;2022-11-20T06:16:24;6.53;;;1.70;;
22480;SDS011;11407;56.964;-2.212;2022-11-20T06:18:49;4.57;;;1.30;;
22480;SDS011;11407;56.964;-2.212;2022-11-20T06:21:19;5.47;;;1.80;;
22480;SDS011;11407;56.964;-2.212;2022-11-20T06:23:46;7.53;;;1.77;;
22480;SDS011;11407;56.964;-2.212;2022-11-20T06:26:13;4.83;;;1.43;;
22480;SDS011;11407;56.964;-2.212;2022-11-20T06:28:50;10.37;;;1.90;;
22480;SDS011;11407;56.964;-2.212;2022-11-20T06:31:17;5.77;;;2.07;;
22480;SDS011;11407;56.964;-2.212;2022-11-20T06:33:45;4.13;;;1.60;;
22480;SDS011;11407;56.964;-2.212;2022-11-20T06:36:11;8.27;;;1.60;;
22480;SDS011;11407;56.964;-2.212;2022-11-20T06:38:38;4.60;;;1.53;;
22480;SDS011;11407;56.964;-2.212;2022-11-20T06:41:05;9.43;;;1.93;;
22480;SDS011;11407;56.964;-2.212;2022-11-20T06:43:32;7.20;;;2.10;;
22480;SDS011;11407;56.964;-2.212;2022-11-20T06:45:58;5.83;;;1.90;;
22480;SDS011;11407;56.964;-2.212;2022-11-20T06:48:25;6.10;;;2.00;;
22480;SDS011;11407;56.964;-2.212;2022-11-20T06:50:51;5.07;;;2.03;;
22480;SDS011;11407;56.964;-2.212;2022-11-20T06:53:17;11.10;;;1.87;;
22480;SDS011;11407;56.964;-2.212;2022-11-20T06:55:43;4.17;;;1.47;;
22480;SDS011;11407;56.964;-2.212;2022-11-20T06:58:10;5.77;;;1.60;;
22480;SDS011;11407;56.964;-2.212;2022-11-20T07:00:36;5.73;;;1.47;;
22480;SDS011;11407;56.964;-2.212;2022-11-20T07:03:04;4.03;;;1.60;;
22480;SDS011;11407;56.964;-2.212;2022-11-20T07:05:31;5.77;;;1.63;;
22480;SDS011;11407;56.964;-2.212;2022-11-20T07:07:57;4.37;;;1.40;;
22480;SDS011;11407;56.964;-2.212;2022-11-20T07:10:22;4.40;;;1.53;;
22480;SDS011;11407;56.964;-2.212;2022-11-20T07:12:49;7.43;;;1.70;;
22480;SDS011;11407;56.964;-2.212;2022-11-20T07:15:18;4.23;;;1.30;;
22480;SDS011;11407;56.964;-2.212;2022-11-20T07:17:45;4.13;;;1.30;;
22480;SDS011;11407;56.964;-2.212;2022-11-20T07:20:11;7.63;;;1.50;;
22480;SDS011;11407;56.964;-2.212;2022-11-20T07:22:36;7.83;;;1.30;;
22480;SDS011;11407;56.964;-2.212;2022-11-20T07:25:02;4.33;;;1.60;;
22480;SDS011;11407;56.964;-2.212;2022-11-20T07:27:28;7.33;;;1.60;;
22480;SDS011;11407;56.964;-2.212;2022-11-20T07:29:54;4.90;;;1.53;;
22480;SDS011;11407;56.964;-2.212;2022-11-20T07:32:19;5.33;;;1.27;;
22480;SDS011;11407;56.964;-2.212;2022-11-20T07:34:44;1.93;;;0.90;;
22480;SDS011;11407;56.964;-2.212;2022-11-20T07:37:10;4.23;;;1.30;;
22480;SDS011;11407;56.964;-2.212;2022-11-20T07:39:35;3.97;;;1.20;;
22480;SDS011;11407;56.964;-2.212;2022-11-20T07:42:01;4.87;;;1.40;;
22480;SDS011;11407;56.964;-2.212;2022-11-20T07:44:26;8.37;;;1.40;;
22480;SDS011;11407;56.964;-2.212;2022-11-20T07:46:52;9.37;;;1.40;;
22480;SDS011;11407;56.964;-2.212;2022-11-20T07:49:17;2.90;;;1.10;;
22480;SDS011;11407;56.964;-2.212;2022-11-20T07:51:43;4.87;;;1.10;;
22480;SDS011;11407;56.964;-2.212;2022-11-20T07:54:08;5.73;;;1.10;;
22480;SDS011;11407;56.964;-2.212;2022-11-20T07:56:33;4.50;;;1.10;;
22480;SDS011;11407;56.964;-2.212;2022-11-20T07:58:59;5.10;;;1.20;;
22480;SDS011;11407;56.964;-2.212;2022-11-20T08:01:24;7.87;;;1.53;;
22480;SDS011;11407;56.964;-2.212;2022-11-20T08:03:50;3.87;;;1.07;;
22480;SDS011;11407;56.964;-2.212;2022-11-20T08:06:15;1.50;;;0.90;;
22480;SDS011;11407;56.964;-2.212;2022-11-20T08:08:40;4.27;;;1.10;;
22480;SDS011;11407;56.964;-2.212;2022-11-20T08:11:06;9.87;;;1.50;;
22480;SDS011;11407;56.964;-2.212;2022-11-20T08:13:50;7.63;;;1.40;;
22480;SDS011;11407;56.964;-2.212;2022-11-20T08:16:34;2.83;;;1.13;;
22480;SDS011;11407;56.964;-2.212;2022-11-20T08:18:59;2.90;;;1.10;;
22480;SDS011;11407;56.964;-2.212;2022-11-20T08:21:25;2.97;;;0.90;;
22480;SDS011;11407;56.964;-2.212;2022-11-20T08:23:51;4.10;;;0.93;;
22480;SDS011;11407;56.964;-2.212;2022-11-20T08:26:17;8.60;;;1.60;;
22480;SDS011;11407;56.964;-2.212;2022-11-20T08:28:42;5.70;;;1.20;;
22480;SDS011;11407;56.964;-2.212;2022-11-20T08:31:09;4.30;;;1.50;;
22480;SDS011;11407;56.964;-2.212;2022-11-20T08:33:34;5.17;;;1.00;;
22480;SDS011;11407;56.964;-2.212;2022-11-20T08:36:00;6.17;;;1.30;;
22480;SDS011;11407;56.964;-2.212;2022-11-20T08:38:30;3.33;;;1.17;;
22480;SDS011;11407;56.964;-2.212;2022-11-20T08:40:56;4.23;;;1.33;;
22480;SDS011;11407;56.964;-2.212;2022-11-20T08:43:41;4.03;;;1.10;;
22480;SDS011;11407;56.964;-2.212;2022-11-20T08:46:06;6.17;;;1.13;;
22480;SDS011;11407;56.964;-2.212;2022-11-20T08:48:32;4.10;;;1.30;;
22480;SDS011;11407;56.964;-2.212;2022-11-20T08:50:58;6.13;;;1.30;;
22480;SDS011;11407;56.964;-2.212;2022-11-20T08:53:24;4.10;;;1.50;;
22480;SDS011;11407;56.964;-2.212;2022-11-20T08:55:50;4.13;;;1.30;;
22480;SDS011;11407;56.964;-2.212;2022-11-20T08:58:15;5.80;;;1.53;;
22480;SDS011;11407;56.964;-2.212;2022-11-20T09:00:41;3.47;;;1.40;;
22480;SDS011;11407;56.964;-2.212;2022-11-20T09:03:06;5.87;;;1.60;;
22480;SDS011;11407;56.964;-2.212;2022-11-20T09:05:31;3.40;;;1.50;;
22480;SDS011;11407;56.964;-2.212;2022-11-20T09:07:57;4.53;;;1.50;;
22480;SDS011;11407;56.964;-2.212;2022-11-20T09:10:23;8.07;;;1.20;;
22480;SDS011;11407;56.964;-2.212;2022-11-20T09:12:48;5.77;;;1.57;;
22480;SDS011;11407;56.964;-2.212;2022-11-20T09:15:15;4.43;;;1.30;;
22480;SDS011;11407;56.964;-2.212;2022-11-20T09:17:41;5.57;;;1.30;;
22480;SDS011;11407;56.964;-2.212;2022-11-20T09:20:06;8.13;;;2.33;;
22480;SDS011;11407;56.964;-2.212;2022-11-20T09:22:32;7.27;;;2.37;;
22480;SDS011;11407;56.964;-2.212;2022-11-20T09:24:57;6.83;;;2.10;;
22480;SDS011;11407;56.964;-2.212;2022-11-20T09:27:23;8.53;;;1.70;;
22480;SDS011;11407;56.964;-2.212;2022-11-20T09:29:48;5.97;;;1.53;;
22480;SDS011;11407;56.964;-2.212;2022-11-20T09:32:14;4.77;;;2.00;;
22480;SDS011;11407;56.964;-2.212;2022-11-20T09:34:39;5.33;;;1.77;;
22480;SDS011;11407;56.964;-2.212;2022-11-20T09:37:05;3.03;;;1.53;;
22480;SDS011;11407;56.964;-2.212;2022-11-20T09:39:30;5.97;;;2.10;;
22480;SDS011;11407;56.964;-2.212;2022-11-20T09:44:42;4.80;;;1.70;;
22480;SDS011;11407;56.964;-2.212;2022-11-20T09:47:21;6.77;;;1.93;;
22480;SDS011;11407;56.964;-2.212;2022-11-20T09:55:23;3.23;;;1.47;;
22480;SDS011;11407;56.964;-2.212;2022-11-20T09:57:51;6.50;;;1.80;;
22480;SDS011;11407;56.964;-2.212;2022-11-20T10:00:17;4.90;;;1.50;;
22480;SDS011;11407;56.964;-2.212;2022-11-20T10:02:55;4.03;;;1.40;;
22480;SDS011;11407;56.964;-2.212;2022-11-20T10:21:13;5.47;;;2.30;;
22480;SDS011;11407;56.964;-2.212;2022-11-20T10:29:10;3.40;;;1.67;;
22480;SDS011;11407;56.964;-2.212;2022-11-20T10:31:45;5.77;;;1.90;;
22480;SDS011;11407;56.964;-2.212;2022-11-20T10:34:25;3.17;;;1.90;;
22480;SDS011;11407;56.964;-2.212;2022-11-20T10:37:01;7.13;;;2.50;;
22480;SDS011;11407;56.964;-2.212;2022-11-20T10:42:02;5.67;;;2.90;;
22480;SDS011;11407;56.964;-2.212;2022-11-20T10:44:36;5.47;;;2.60;;
22480;SDS011;11407;56.964;-2.212;2022-11-20T10:47:20;4.53;;;2.10;;
22480;SDS011;11407;56.964;-2.212;2022-11-20T10:49:50;3.87;;;2.30;;
22480;SDS011;11407;56.964;-2.212;2022-11-20T10:58:15;13.53;;;7.40;;
22480;SDS011;11407;56.964;-2.212;2022-11-20T11:01:03;7.07;;;3.67;;
22480;SDS011;11407;56.964;-2.212;2022-11-20T11:03:30;9.07;;;2.60;;
22480;SDS011;11407;56.964;-2.212;2022-11-20T11:06:00;4.13;;;2.90;;
22480;SDS011;11407;56.964;-2.212;2022-11-20T11:08:48;4.30;;;3.07;;
22480;SDS011;11407;56.964;-2.212;2022-11-20T11:11:20;3.53;;;2.50;;
22480;SDS011;11407;56.964;-2.212;2022-11-20T11:13:48;4.80;;;3.10;;
22480;SDS011;11407;56.964;-2.212;2022-11-20T11:16:32;5.80;;;3.03;;
22480;SDS011;11407;56.964;-2.212;2022-11-20T11:19:31;3.87;;;2.30;;
22480;SDS011;11407;56.964;-2.212;2022-11-20T11:24:20;4.83;;;2.97;;
22480;SDS011;11407;56.964;-2.212;2022-11-20T11:27:03;4.97;;;2.77;;
22480;SDS011;11407;56.964;-2.212;2022-11-20T11:29:36;4.60;;;3.13;;
22480;SDS011;11407;56.964;-2.212;2022-11-20T11:34:33;6.47;;;3.37;;
22480;SDS011;11407;56.964;-2.212;2022-11-20T11:36:59;7.37;;;3.23;;
22480;SDS011;11407;56.964;-2.212;2022-11-20T11:39:28;3.93;;;2.63;;
22480;SDS011;11407;56.964;-2.212;2022-11-20T11:41:55;4.70;;;2.40;;
22480;SDS011;11407;56.964;-2.212;2022-11-20T11:44:29;4.70;;;2.60;;
22480;SDS011;11407;56.964;-2.212;2022-11-20T11:52:46;5.90;;;3.03;;
22480;SDS011;11407;56.964;-2.212;2022-11-20T11:55:28;4.30;;;3.43;;
22480;SDS011;11407;56.964;-2.212;2022-11-20T12:06:51;4.07;;;2.20;;
22480;SDS011;11407;56.964;-2.212;2022-11-20T12:09:24;3.27;;;2.00;;
22480;SDS011;11407;56.964;-2.212;2022-11-20T12:12:04;4.50;;;1.90;;
22480;SDS011;11407;56.964;-2.212;2022-11-20T12:14:42;4.13;;;2.10;;
22480;SDS011;11407;56.964;-2.212;2022-11-20T12:17:11;2.73;;;1.47;;
22480;SDS011;11407;56.964;-2.212;2022-11-20T12:19:38;1.70;;;1.20;;
22480;SDS011;11407;56.964;-2.212;2022-11-20T12:30:26;2.40;;;1.50;;
22480;SDS011;11407;56.964;-2.212;2022-11-20T12:44:20;2.93;;;1.50;;
22480;SDS011;11407;56.964;-2.212;2022-11-20T12:50:08;4.23;;;2.20;;
22480;SDS011;11407;56.964;-2.212;2022-11-20T12:55:47;3.80;;;1.60;;
22480;SDS011;11407;56.964;-2.212;2022-11-20T13:00:56;2.97;;;2.10;;
22480;SDS011;11407;56.964;-2.212;2022-11-20T13:13:23;3.37;;;1.80;;
22480;SDS011;11407;56.964;-2.212;2022-11-20T13:15:59;2.17;;;1.83;;
22480;SDS011;11407;56.964;-2.212;2022-11-20T13:18:38;5.30;;;1.80;;
22480;SDS011;11407;56.964;-2.212;2022-11-20T13:21:13;4.40;;;1.63;;
22480;SDS011;11407;56.964;-2.212;2022-11-20T13:23:47;3.43;;;2.40;;
22480;SDS011;11407;56.964;-2.212;2022-11-20T13:26:19;3.20;;;2.10;;
22480;SDS011;11407;56.964;-2.212;2022-11-20T13:28:47;4.20;;;2.10;;
22480;SDS011;11407;56.964;-2.212;2022-11-20T13:31:31;4.43;;;2.50;;
22480;SDS011;11407;56.964;-2.212;2022-11-20T13:33:59;4.23;;;1.87;;
22480;SDS011;11407;56.964;-2.212;2022-11-20T13:36:28;4.37;;;2.00;;
22480;SDS011;11407;56.964;-2.212;2022-11-20T13:38:55;3.77;;;1.60;;
22480;SDS011;11407;56.964;-2.212;2022-11-20T13:43:54;2.80;;;1.70;;
22480;SDS011;11407;56.964;-2.212;2022-11-20T13:46:35;4.70;;;2.10;;
22480;SDS011;11407;56.964;-2.212;2022-11-20T13:49:06;3.83;;;2.20;;
22480;SDS011;11407;56.964;-2.212;2022-11-20T13:51:41;4.93;;;2.30;;
22480;SDS011;11407;56.964;-2.212;2022-11-20T14:01:58;3.53;;;1.80;;
22480;SDS011;11407;56.964;-2.212;2022-11-20T14:04:35;3.07;;;2.00;;
22480;SDS011;11407;56.964;-2.212;2022-11-20T14:07:04;3.27;;;1.70;;
22480;SDS011;11407;56.964;-2.212;2022-11-20T14:09:31;2.50;;;1.70;;
22480;SDS011;11407;56.964;-2.212;2022-11-20T14:11:58;2.20;;;1.50;;
22480;SDS011;11407;56.964;-2.212;2022-11-20T14:14:25;2.20;;;1.87;;
22480;SDS011;11407;56.964;-2.212;2022-11-20T14:16:52;4.10;;;1.90;;
22480;SDS011;11407;56.964;-2.212;2022-11-20T14:19:29;2.93;;;1.90;;
22480;SDS011;11407;56.964;-2.212;2022-11-20T14:25:00;4.73;;;2.50;;
22480;SDS011;11407;56.964;-2.212;2022-11-20T14:27:28;3.33;;;2.40;;
22480;SDS011;11407;56.964;-2.212;2022-11-20T14:29:54;4.23;;;2.60;;
22480;SDS011;11407;56.964;-2.212;2022-11-20T14:32:21;2.37;;;2.17;;
22480;SDS011;11407;56.964;-2.212;2022-11-20T14:34:52;3.40;;;2.27;;
22480;SDS011;11407;56.964;-2.212;2022-11-20T14:37:21;3.27;;;2.20;;
22480;SDS011;11407;56.964;-2.212;2022-11-20T14:39:53;3.33;;;2.63;;
22480;SDS011;11407;56.964;-2.212;2022-11-20T14:42:21;5.87;;;2.30;;
22480;SDS011;11407;56.964;-2.212;2022-11-20T14:44:48;5.30;;;2.43;;
22480;SDS011;11407;56.964;-2.212;2022-11-20T14:47:17;4.73;;;2.90;;
22480;SDS011;11407;56.964;-2.212;2022-11-20T14:49:47;4.80;;;3.03;;
22480;SDS011;11407;56.964;-2.212;2022-11-20T14:52:15;6.40;;;3.03;;
22480;SDS011;11407;56.964;-2.212;2022-11-20T14:54:49;5.10;;;3.00;;
22480;SDS011;11407;56.964;-2.212;2022-11-20T14:57:32;7.13;;;3.00;;
22480;SDS011;11407;56.964;-2.212;2022-11-20T15:02:30;7.77;;;4.20;;
22480;SDS011;11407;56.964;-2.212;2022-11-20T15:04:59;4.80;;;3.50;;
22480;SDS011;11407;56.964;-2.212;2022-11-20T15:10:03;9.97;;;5.27;;
22480;SDS011;11407;56.964;-2.212;2022-11-20T15:12:31;13.17;;;7.30;;
22480;SDS011;11407;56.964;-2.212;2022-11-20T15:14:58;8.93;;;5.53;;
22480;SDS011;11407;56.964;-2.212;2022-11-20T15:17:26;8.10;;;3.73;;
22480;SDS011;11407;56.964;-2.212;2022-11-20T15:19:51;4.30;;;3.00;;
22480;SDS011;11407;56.964;-2.212;2022-11-20T15:22:18;5.53;;;3.23;;
22480;SDS011;11407;56.964;-2.212;2022-11-20T15:24:44;6.70;;;4.03;;
22480;SDS011;11407;56.964;-2.212;2022-11-20T15:27:10;9.27;;;6.00;;
22480;SDS011;11407;56.964;-2.212;2022-11-20T15:29:36;9.43;;;5.43;;
22480;SDS011;11407;56.964;-2.212;2022-11-20T15:32:01;16.70;;;7.50;;
22480;SDS011;11407;56.964;-2.212;2022-11-20T15:34:27;18.27;;;8.67;;
22480;SDS011;11407;56.964;-2.212;2022-11-20T15:36:52;12.00;;;5.50;;
22480;SDS011;11407;56.964;-2.212;2022-11-20T15:39:19;9.63;;;5.20;;
22480;SDS011;11407;56.964;-2.212;2022-11-20T15:41:45;7.10;;;4.93;;
22480;SDS011;11407;56.964;-2.212;2022-11-20T15:44:11;6.40;;;4.03;;
22480;SDS011;11407;56.964;-2.212;2022-11-20T15:46:37;7.83;;;4.63;;
22480;SDS011;11407;56.964;-2.212;2022-11-20T15:49:05;6.70;;;4.87;;
22480;SDS011;11407;56.964;-2.212;2022-11-20T15:51:34;7.43;;;4.53;;
22480;SDS011;11407;56.964;-2.212;2022-11-20T15:54:15;7.00;;;4.30;;
22480;SDS011;11407;56.964;-2.212;2022-11-20T15:56:48;13.53;;;6.30;;
22480;SDS011;11407;56.964;-2.212;2022-11-20T15:59:17;8.07;;;4.77;;
22480;SDS011;11407;56.964;-2.212;2022-11-20T16:01:42;8.07;;;4.80;;
22480;SDS011;11407;56.964;-2.212;2022-11-20T16:04:11;6.33;;;4.10;;
22480;SDS011;11407;56.964;-2.212;2022-11-20T16:06:41;6.47;;;3.40;;
22480;SDS011;11407;56.964;-2.212;2022-11-20T16:09:07;6.03;;;3.37;;
22480;SDS011;11407;56.964;-2.212;2022-11-20T16:11:33;7.30;;;3.60;;
22480;SDS011;11407;56.964;-2.212;2022-11-20T16:14:05;6.07;;;3.60;;
22480;SDS011;11407;56.964;-2.212;2022-11-20T16:16:49;6.33;;;4.17;;
22480;SDS011;11407;56.964;-2.212;2022-11-20T16:19:15;5.03;;;4.10;;
22480;SDS011;11407;56.964;-2.212;2022-11-20T16:21:42;6.07;;;4.63;;
22480;SDS011;11407;56.964;-2.212;2022-11-20T16:24:09;10.77;;;8.10;;
22480;SDS011;11407;56.964;-2.212;2022-11-20T16:26:36;7.53;;;6.33;;
22480;SDS011;11407;56.964;-2.212;2022-11-20T16:29:02;5.73;;;5.13;;
22480;SDS011;11407;56.964;-2.212;2022-11-20T16:31:30;6.70;;;4.33;;
22480;SDS011;11407;56.964;-2.212;2022-11-20T16:33:56;8.43;;;5.27;;
22480;SDS011;11407;56.964;-2.212;2022-11-20T16:36:24;6.17;;;4.10;;